sensor_id;sensor_type;location;lat;lon;timestamp;P1;durP1;ratioP1;P2;durP2;ratioP2
11139;SDS011;5624;49.388;11.350;2024-01-27T00:01:40;8.07;;;3.33;;
11139;SDS011;5624;49.388;11.350;2024-01-27T00:04:05;7.83;;;3.20;;
11139;SDS011;5624;49.388;11.350;2024-01-27T00:06:31;9.33;;;3.33;;
11139;SDS011;5624;49.388;11.350;2024-01-27T00:08:56;7.23;;;3.27;;
11139;SDS011;5624;49.388;11.350;2024-01-27T00:11:22;8.90;;;3.30;;
11139;SDS011;5624;49.388;11.350;2024-01-27T00:13:49;6.97;;;3.30;;
11139;SDS011;5624;49.388;11.350;2024-01-27T00:16:15;9.00;;;3.70;;
11139;SDS011;5624;49.388;11.350;2024-01-27T00:18:40;7.03;;;3.30;;
11139;SDS011;5624;49.388;11.350;2024-01-27T00:21:06;7.13;;;3.20;;
11139;SDS011;5624;49.388;11.350;2024-01-27T00:23:32;9.10;;;3.37;;
11139;SDS011;5624;49.388;11.350;2024-01-27T00:25:59;10.03;;;3.40;;
11139;SDS011;5624;49.388;11.350;2024-01-27T00:28:25;10.27;;;3.93;;
11139;SDS011;5624;49.388;11.350;2024-01-27T00:30:50;9.73;;;3.90;;
11139;SDS011;5624;49.388;11.350;2024-01-27T00:33:16;8.23;;;3.50;;
11139;SDS011;5624;49.388;11.350;2024-01-27T00:35:41;8.10;;;3.47;;
11139;SDS011;5624;49.388;11.350;2024-01-27T00:38:07;8.27;;;3.57;;
11139;SDS011;5624;49.388;11.350;2024-01-27T00:40:33;6.87;;;3.33;;
11139;SDS011;5624;49.388;11.350;2024-01-27T00:42:59;8.90;;;3.17;;
11139;SDS011;5624;49.388;11.350;2024-01-27T00:45:24;10.30;;;3.30;;
11139;SDS011;5624;49.388;11.350;2024-01-27T00:47:52;7.37;;;3.40;;
11139;SDS011;5624;49.388;11.350;2024-01-27T00:50:17;8.57;;;3.50;;
11139;SDS011;5624;49.388;11.350;2024-01-27T00:52:43;7.23;;;3.40;;
11139;SDS011;5624;49.388;11.350;2024-01-27T00:55:09;8.13;;;3.30;;
11139;SDS011;5624;49.388;11.350;2024-01-27T00:57:37;11.57;;;3.60;;
11139;SDS011;5624;49.388;11.350;2024-01-27T01:00:04;8.57;;;3.57;;
11139;SDS011;5624;49.388;11.350;2024-01-27T01:02:31;9.10;;;3.43;;
11139;SDS011;5624;49.388;11.350;2024-01-27T01:04:57;10.30;;;3.30;;
11139;SDS011;5624;49.388;11.350;2024-01-27T01:07:22;7.90;;;3.30;;
11139;SDS011;5624;49.388;11.350;2024-01-27T01:09:48;8.30;;;3.40;;
11139;SDS011;5624;49.388;11.350;2024-01-27T01:12:14;5.20;;;3.27;;
11139;SDS011;5624;49.388;11.350;2024-01-27T01:14:40;7.23;;;3.30;;
11139;SDS011;5624;49.388;11.350;2024-01-27T01:17:06;7.60;;;3.47;;
11139;SDS011;5624;49.388;11.350;2024-01-27T01:19:32;6.67;;;3.30;;
11139;SDS011;5624;49.388;11.350;2024-01-27T01:21:57;7.63;;;3.30;;
11139;SDS011;5624;49.388;11.350;2024-01-27T01:24:23;7.27;;;3.40;;
11139;SDS011;5624;49.388;11.350;2024-01-27T01:26:48;11.53;;;3.63;;
11139;SDS011;5624;49.388;11.350;2024-01-27T01:29:14;8.07;;;3.07;;
11139;SDS011;5624;49.388;11.350;2024-01-27T01:31:41;7.80;;;3.23;;
11139;SDS011;5624;49.388;11.350;2024-01-27T01:34:09;6.10;;;3.40;;
11139;SDS011;5624;49.388;11.350;2024-01-27T01:36:35;8.30;;;3.73;;
11139;SDS011;5624;49.388;11.350;2024-01-27T01:39:01;9.13;;;3.13;;
11139;SDS011;5624;49.388;11.350;2024-01-27T01:41:26;8.83;;;3.40;;
11139;SDS011;5624;49.388;11.350;2024-01-27T01:43:52;6.93;;;3.70;;
11139;SDS011;5624;49.388;11.350;2024-01-27T01:46:18;8.67;;;3.43;;
11139;SDS011;5624;49.388;11.350;2024-01-27T01:48:44;10.33;;;3.87;;
11139;SDS011;5624;49.388;11.350;2024-01-27T01:51:10;10.10;;;3.67;;
11139;SDS011;5624;49.388;11.350;2024-01-27T01:53:36;7.53;;;3.53;;
11139;SDS011;5624;49.388;11.350;2024-01-27T01:56:01;9.70;;;3.63;;
11139;SDS011;5624;49.388;11.350;2024-01-27T01:58:29;7.03;;;3.43;;
11139;SDS011;5624;49.388;11.350;2024-01-27T02:00:59;6.33;;;3.17;;
11139;SDS011;5624;49.388;11.350;2024-01-27T02:03:25;9.03;;;3.67;;
11139;SDS011;5624;49.388;11.350;2024-01-27T02:05:51;12.17;;;3.50;;
11139;SDS011;5624;49.388;11.350;2024-01-27T02:08:16;8.53;;;3.57;;
11139;SDS011;5624;49.388;11.350;2024-01-27T02:10:42;9.97;;;3.30;;
11139;SDS011;5624;49.388;11.350;2024-01-27T02:13:21;6.83;;;3.50;;
11139;SDS011;5624;49.388;11.350;2024-01-27T02:15:47;9.63;;;3.77;;
11139;SDS011;5624;49.388;11.350;2024-01-27T02:18:14;8.20;;;4.00;;
11139;SDS011;5624;49.388;11.350;2024-01-27T02:20:41;10.50;;;3.90;;
11139;SDS011;5624;49.388;11.350;2024-01-27T02:23:07;8.80;;;4.37;;
11139;SDS011;5624;49.388;11.350;2024-01-27T02:25:33;12.77;;;4.10;;
11139;SDS011;5624;49.388;11.350;2024-01-27T02:27:59;10.00;;;3.77;;
11139;SDS011;5624;49.388;11.350;2024-01-27T02:30:25;7.47;;;3.90;;
11139;SDS011;5624;49.388;11.350;2024-01-27T02:32:51;8.23;;;4.03;;
11139;SDS011;5624;49.388;11.350;2024-01-27T02:35:17;8.10;;;4.03;;
11139;SDS011;5624;49.388;11.350;2024-01-27T02:37:43;9.83;;;4.10;;
11139;SDS011;5624;49.388;11.350;2024-01-27T02:40:09;11.90;;;4.27;;
11139;SDS011;5624;49.388;11.350;2024-01-27T02:42:35;10.63;;;4.00;;
11139;SDS011;5624;49.388;11.350;2024-01-27T02:45:01;9.73;;;3.70;;
11139;SDS011;5624;49.388;11.350;2024-01-27T02:47:27;12.50;;;4.43;;
11139;SDS011;5624;49.388;11.350;2024-01-27T02:49:52;9.77;;;4.20;;
11139;SDS011;5624;49.388;11.350;2024-01-27T02:52:18;11.30;;;4.17;;
11139;SDS011;5624;49.388;11.350;2024-01-27T02:54:43;9.20;;;4.00;;
11139;SDS011;5624;49.388;11.350;2024-01-27T02:57:09;10.50;;;4.20;;
11139;SDS011;5624;49.388;11.350;2024-01-27T02:59:35;11.23;;;4.60;;
11139;SDS011;5624;49.388;11.350;2024-01-27T03:02:00;10.67;;;4.30;;
11139;SDS011;5624;49.388;11.350;2024-01-27T03:04:26;11.40;;;4.70;;
11139;SDS011;5624;49.388;11.350;2024-01-27T03:06:51;9.90;;;4.10;;
11139;SDS011;5624;49.388;11.350;2024-01-27T03:09:17;8.83;;;3.93;;
11139;SDS011;5624;49.388;11.350;2024-01-27T03:11:43;7.83;;;3.67;;
11139;SDS011;5624;49.388;11.350;2024-01-27T03:14:08;8.47;;;3.90;;
11139;SDS011;5624;49.388;11.350;2024-01-27T03:16:35;9.60;;;4.20;;
11139;SDS011;5624;49.388;11.350;2024-01-27T03:19:01;9.43;;;4.00;;
11139;SDS011;5624;49.388;11.350;2024-01-27T03:21:26;8.07;;;3.70;;
11139;SDS011;5624;49.388;11.350;2024-01-27T03:23:52;6.90;;;4.20;;
11139;SDS011;5624;49.388;11.350;2024-01-27T03:26:17;9.60;;;4.60;;
11139;SDS011;5624;49.388;11.350;2024-01-27T03:28:43;8.17;;;4.23;;
11139;SDS011;5624;49.388;11.350;2024-01-27T03:31:08;6.77;;;4.10;;
11139;SDS011;5624;49.388;11.350;2024-01-27T03:33:34;8.83;;;3.97;;
11139;SDS011;5624;49.388;11.350;2024-01-27T03:35:59;8.43;;;4.30;;
11139;SDS011;5624;49.388;11.350;2024-01-27T03:38:25;6.93;;;4.17;;
11139;SDS011;5624;49.388;11.350;2024-01-27T03:40:51;11.33;;;4.43;;
11139;SDS011;5624;49.388;11.350;2024-01-27T03:43:16;11.53;;;4.20;;
11139;SDS011;5624;49.388;11.350;2024-01-27T03:45:42;8.73;;;4.13;;
11139;SDS011;5624;49.388;11.350;2024-01-27T03:48:07;6.13;;;3.97;;
11139;SDS011;5624;49.388;11.350;2024-01-27T03:50:33;11.93;;;4.97;;
11139;SDS011;5624;49.388;11.350;2024-01-27T03:52:58;9.13;;;4.73;;
11139;SDS011;5624;49.388;11.350;2024-01-27T03:55:23;8.23;;;4.43;;
11139;SDS011;5624;49.388;11.350;2024-01-27T03:57:49;10.60;;;4.20;;
11139;SDS011;5624;49.388;11.350;2024-01-27T04:00:15;8.93;;;4.30;;
11139;SDS011;5624;49.388;11.350;2024-01-27T04:02:40;9.13;;;4.17;;
11139;SDS011;5624;49.388;11.350;2024-01-27T04:05:06;11.03;;;4.87;;
11139;SDS011;5624;49.388;11.350;2024-01-27T04:07:32;9.03;;;4.10;;
11139;SDS011;5624;49.388;11.350;2024-01-27T04:09:57;11.10;;;4.40;;
11139;SDS011;5624;49.388;11.350;2024-01-27T04:12:23;11.57;;;4.33;;
11139;SDS011;5624;49.388;11.350;2024-01-27T04:14:48;10.57;;;4.50;;
11139;SDS011;5624;49.388;11.350;2024-01-27T04:17:14;12.13;;;5.37;;
11139;SDS011;5624;49.388;11.350;2024-01-27T04:19:39;10.37;;;5.80;;
11139;SDS011;5624;49.388;11.350;2024-01-27T04:22:05;13.40;;;5.27;;
11139;SDS011;5624;49.388;11.350;2024-01-27T04:24:30;7.97;;;4.73;;
11139;SDS011;5624;49.388;11.350;2024-01-27T04:26:56;10.87;;;5.03;;
11139;SDS011;5624;49.388;11.350;2024-01-27T04:29:22;10.90;;;4.27;;
11139;SDS011;5624;49.388;11.350;2024-01-27T04:31:47;8.73;;;4.77;;
11139;SDS011;5624;49.388;11.350;2024-01-27T04:34:13;11.93;;;4.00;;
11139;SDS011;5624;49.388;11.350;2024-01-27T04:36:38;7.73;;;4.03;;
11139;SDS011;5624;49.388;11.350;2024-01-27T04:39:04;10.33;;;4.80;;
11139;SDS011;5624;49.388;11.350;2024-01-27T04:41:29;8.87;;;4.00;;
11139;SDS011;5624;49.388;11.350;2024-01-27T04:43:55;10.23;;;4.23;;
11139;SDS011;5624;49.388;11.350;2024-01-27T04:46:22;10.30;;;4.43;;
11139;SDS011;5624;49.388;11.350;2024-01-27T04:48:47;9.97;;;4.27;;
11139;SDS011;5624;49.388;11.350;2024-01-27T04:51:13;10.17;;;4.23;;
11139;SDS011;5624;49.388;11.350;2024-01-27T04:53:39;9.07;;;4.77;;
11139;SDS011;5624;49.388;11.350;2024-01-27T04:56:04;8.63;;;4.37;;
11139;SDS011;5624;49.388;11.350;2024-01-27T04:58:33;10.40;;;4.67;;
11139;SDS011;5624;49.388;11.350;2024-01-27T05:00:59;10.13;;;4.50;;
11139;SDS011;5624;49.388;11.350;2024-01-27T05:03:26;8.20;;;4.50;;
11139;SDS011;5624;49.388;11.350;2024-01-27T05:05:51;9.50;;;4.90;;
11139;SDS011;5624;49.388;11.350;2024-01-27T05:08:17;8.80;;;4.17;;
11139;SDS011;5624;49.388;11.350;2024-01-27T05:10:44;7.23;;;4.20;;
11139;SDS011;5624;49.388;11.350;2024-01-27T05:13:09;9.03;;;4.30;;
11139;SDS011;5624;49.388;11.350;2024-01-27T05:15:35;11.83;;;5.00;;
11139;SDS011;5624;49.388;11.350;2024-01-27T05:18:00;11.57;;;4.90;;
11139;SDS011;5624;49.388;11.350;2024-01-27T05:20:26;8.67;;;4.53;;
11139;SDS011;5624;49.388;11.350;2024-01-27T05:22:51;7.73;;;4.57;;
11139;SDS011;5624;49.388;11.350;2024-01-27T05:25:17;15.87;;;6.00;;
11139;SDS011;5624;49.388;11.350;2024-01-27T05:27:42;12.57;;;5.53;;
11139;SDS011;5624;49.388;11.350;2024-01-27T05:30:08;11.20;;;5.30;;
11139;SDS011;5624;49.388;11.350;2024-01-27T05:32:34;10.53;;;5.57;;
11139;SDS011;5624;49.388;11.350;2024-01-27T05:34:59;15.70;;;5.13;;
11139;SDS011;5624;49.388;11.350;2024-01-27T05:37:25;12.57;;;6.00;;
11139;SDS011;5624;49.388;11.350;2024-01-27T05:39:51;9.97;;;4.97;;
11139;SDS011;5624;49.388;11.350;2024-01-27T05:42:16;12.63;;;6.07;;
11139;SDS011;5624;49.388;11.350;2024-01-27T05:44:42;11.30;;;5.37;;
11139;SDS011;5624;49.388;11.350;2024-01-27T05:47:07;11.40;;;5.30;;
11139;SDS011;5624;49.388;11.350;2024-01-27T05:49:35;11.83;;;5.20;;
11139;SDS011;5624;49.388;11.350;2024-01-27T05:52:01;16.80;;;5.97;;
11139;SDS011;5624;49.388;11.350;2024-01-27T05:54:27;10.93;;;5.07;;
11139;SDS011;5624;49.388;11.350;2024-01-27T05:56:52;11.23;;;5.63;;
11139;SDS011;5624;49.388;11.350;2024-01-27T05:59:18;10.23;;;4.87;;
11139;SDS011;5624;49.388;11.350;2024-01-27T06:01:43;11.80;;;5.30;;
11139;SDS011;5624;49.388;11.350;2024-01-27T06:04:09;11.70;;;5.60;;
11139;SDS011;5624;49.388;11.350;2024-01-27T06:06:38;9.43;;;5.03;;
11139;SDS011;5624;49.388;11.350;2024-01-27T06:09:04;12.63;;;5.67;;
11139;SDS011;5624;49.388;11.350;2024-01-27T06:11:30;8.70;;;5.93;;
11139;SDS011;5624;49.388;11.350;2024-01-27T06:13:56;8.13;;;4.77;;
11139;SDS011;5624;49.388;11.350;2024-01-27T06:16:23;11.53;;;5.50;;
11139;SDS011;5624;49.388;11.350;2024-01-27T06:18:48;9.63;;;5.37;;
11139;SDS011;5624;49.388;11.350;2024-01-27T06:21:14;10.53;;;5.83;;
11139;SDS011;5624;49.388;11.350;2024-01-27T06:23:39;15.87;;;6.60;;
11139;SDS011;5624;49.388;11.350;2024-01-27T06:26:08;9.43;;;5.37;;
11139;SDS011;5624;49.388;11.350;2024-01-27T06:28:34;11.87;;;5.33;;
11139;SDS011;5624;49.388;11.350;2024-01-27T06:31:00;9.47;;;5.13;;
11139;SDS011;5624;49.388;11.350;2024-01-27T06:33:26;11.63;;;6.07;;
11139;SDS011;5624;49.388;11.350;2024-01-27T06:35:52;9.63;;;5.37;;
11139;SDS011;5624;49.388;11.350;2024-01-27T06:38:17;10.83;;;5.53;;
11139;SDS011;5624;49.388;11.350;2024-01-27T06:40:43;12.43;;;5.73;;
11139;SDS011;5624;49.388;11.350;2024-01-27T06:43:10;12.10;;;5.57;;
11139;SDS011;5624;49.388;11.350;2024-01-27T06:45:37;19.73;;;12.03;;
11139;SDS011;5624;49.388;11.350;2024-01-27T06:48:02;10.33;;;7.07;;
11139;SDS011;5624;49.388;11.350;2024-01-27T06:50:29;19.53;;;9.30;;
11139;SDS011;5624;49.388;11.350;2024-01-27T06:52:54;13.53;;;6.57;;
11139;SDS011;5624;49.388;11.350;2024-01-27T06:55:20;14.37;;;7.10;;
11139;SDS011;5624;49.388;11.350;2024-01-27T06:57:45;10.13;;;5.90;;
11139;SDS011;5624;49.388;11.350;2024-01-27T07:00:11;12.00;;;6.23;;
11139;SDS011;5624;49.388;11.350;2024-01-27T07:02:39;10.70;;;6.33;;
11139;SDS011;5624;49.388;11.350;2024-01-27T07:05:06;13.83;;;5.93;;
11139;SDS011;5624;49.388;11.350;2024-01-27T07:07:32;11.97;;;6.07;;
11139;SDS011;5624;49.388;11.350;2024-01-27T07:09:58;12.13;;;6.27;;
11139;SDS011;5624;49.388;11.350;2024-01-27T07:12:24;8.57;;;5.53;;
11139;SDS011;5624;49.388;11.350;2024-01-27T07:14:50;11.93;;;6.80;;
11139;SDS011;5624;49.388;11.350;2024-01-27T07:17:19;12.87;;;6.40;;
11139;SDS011;5624;49.388;11.350;2024-01-27T07:19:45;13.03;;;6.33;;
11139;SDS011;5624;49.388;11.350;2024-01-27T07:22:11;11.97;;;6.17;;
11139;SDS011;5624;49.388;11.350;2024-01-27T07:24:37;8.77;;;6.17;;
11139;SDS011;5624;49.388;11.350;2024-01-27T07:27:02;11.33;;;5.67;;
11139;SDS011;5624;49.388;11.350;2024-01-27T07:29:28;15.37;;;6.83;;
11139;SDS011;5624;49.388;11.350;2024-01-27T07:31:54;16.83;;;7.30;;
11139;SDS011;5624;49.388;11.350;2024-01-27T07:34:20;15.20;;;7.70;;
11139;SDS011;5624;49.388;11.350;2024-01-27T07:36:45;12.37;;;7.63;;
11139;SDS011;5624;49.388;11.350;2024-01-27T07:39:13;15.60;;;7.87;;
11139;SDS011;5624;49.388;11.350;2024-01-27T07:41:38;11.00;;;7.03;;
11139;SDS011;5624;49.388;11.350;2024-01-27T07:44:10;15.43;;;6.53;;
11139;SDS011;5624;49.388;11.350;2024-01-27T07:46:37;17.97;;;6.77;;
11139;SDS011;5624;49.388;11.350;2024-01-27T07:49:03;14.03;;;6.80;;
11139;SDS011;5624;49.388;11.350;2024-01-27T07:51:30;10.97;;;6.10;;
11139;SDS011;5624;49.388;11.350;2024-01-27T07:53:55;12.80;;;6.40;;
11139;SDS011;5624;49.388;11.350;2024-01-27T07:56:21;12.87;;;6.27;;
11139;SDS011;5624;49.388;11.350;2024-01-27T07:58:46;14.17;;;6.00;;
11139;SDS011;5624;49.388;11.350;2024-01-27T08:01:15;10.13;;;6.03;;
11139;SDS011;5624;49.388;11.350;2024-01-27T08:03:41;13.90;;;5.97;;
11139;SDS011;5624;49.388;11.350;2024-01-27T08:06:07;14.17;;;6.63;;
11139;SDS011;5624;49.388;11.350;2024-01-27T08:08:36;12.33;;;6.20;;
11139;SDS011;5624;49.388;11.350;2024-01-27T08:11:02;11.73;;;5.70;;
11139;SDS011;5624;49.388;11.350;2024-01-27T08:13:28;13.07;;;5.47;;
11139;SDS011;5624;49.388;11.350;2024-01-27T08:15:53;13.53;;;5.87;;
11139;SDS011;5624;49.388;11.350;2024-01-27T08:18:19;9.10;;;5.70;;
11139;SDS011;5624;49.388;11.350;2024-01-27T08:20:44;11.07;;;5.90;;
11139;SDS011;5624;49.388;11.350;2024-01-27T08:23:10;9.47;;;5.47;;
11139;SDS011;5624;49.388;11.350;2024-01-27T08:25:36;9.00;;;5.27;;
11139;SDS011;5624;49.388;11.350;2024-01-27T08:28:01;9.53;;;5.27;;
11139;SDS011;5624;49.388;11.350;2024-01-27T08:30:27;8.90;;;5.43;;
11139;SDS011;5624;49.388;11.350;2024-01-27T08:32:52;10.13;;;5.27;;
11139;SDS011;5624;49.388;11.350;2024-01-27T08:35:18;8.67;;;4.57;;
11139;SDS011;5624;49.388;11.350;2024-01-27T08:37:43;8.30;;;4.97;;
11139;SDS011;5624;49.388;11.350;2024-01-27T08:40:09;10.67;;;4.90;;
11139;SDS011;5624;49.388;11.350;2024-01-27T08:42:35;10.27;;;5.60;;
11139;SDS011;5624;49.388;11.350;2024-01-27T08:45:00;12.43;;;5.07;;
11139;SDS011;5624;49.388;11.350;2024-01-27T08:47:25;10.97;;;4.83;;
11139;SDS011;5624;49.388;11.350;2024-01-27T08:49:51;9.07;;;5.17;;
11139;SDS011;5624;49.388;11.350;2024-01-27T08:52:16;7.53;;;4.70;;
11139;SDS011;5624;49.388;11.350;2024-01-27T08:54:42;10.57;;;4.90;;
11139;SDS011;5624;49.388;11.350;2024-01-27T08:57:08;8.13;;;4.60;;
11139;SDS011;5624;49.388;11.350;2024-01-27T08:59:33;10.17;;;5.27;;
11139;SDS011;5624;49.388;11.350;2024-01-27T09:02:00;9.90;;;5.20;;
11139;SDS011;5624;49.388;11.350;2024-01-27T09:04:26;9.03;;;5.50;;
11139;SDS011;5624;49.388;11.350;2024-01-27T09:06:51;11.37;;;5.10;;
11139;SDS011;5624;49.388;11.350;2024-01-27T09:09:17;9.93;;;5.40;;
11139;SDS011;5624;49.388;11.350;2024-01-27T09:11:42;8.67;;;5.07;;
11139;SDS011;5624;49.388;11.350;2024-01-27T09:14:08;11.53;;;5.00;;
11139;SDS011;5624;49.388;11.350;2024-01-27T09:16:33;11.23;;;4.70;;
11139;SDS011;5624;49.388;11.350;2024-01-27T09:18:59;8.77;;;4.77;;
11139;SDS011;5624;49.388;11.350;2024-01-27T09:21:25;11.03;;;4.80;;
11139;SDS011;5624;49.388;11.350;2024-01-27T09:23:56;10.87;;;4.67;;
11139;SDS011;5624;49.388;11.350;2024-01-27T09:26:22;8.13;;;4.47;;
11139;SDS011;5624;49.388;11.350;2024-01-27T09:28:48;10.40;;;4.90;;
11139;SDS011;5624;49.388;11.350;2024-01-27T09:31:20;8.30;;;4.70;;
11139;SDS011;5624;49.388;11.350;2024-01-27T09:33:48;8.93;;;4.33;;
11139;SDS011;5624;49.388;11.350;2024-01-27T09:36:15;9.70;;;4.57;;
11139;SDS011;5624;49.388;11.350;2024-01-27T09:38:41;12.67;;;4.30;;
11139;SDS011;5624;49.388;11.350;2024-01-27T09:41:06;8.77;;;3.83;;
11139;SDS011;5624;49.388;11.350;2024-01-27T09:43:32;8.57;;;3.67;;
11139;SDS011;5624;49.388;11.350;2024-01-27T09:45:58;11.20;;;4.77;;
11139;SDS011;5624;49.388;11.350;2024-01-27T09:48:23;9.40;;;4.20;;
11139;SDS011;5624;49.388;11.350;2024-01-27T09:50:50;12.63;;;4.20;;
11139;SDS011;5624;49.388;11.350;2024-01-27T09:53:17;7.70;;;3.83;;
11139;SDS011;5624;49.388;11.350;2024-01-27T09:55:43;8.63;;;4.33;;
11139;SDS011;5624;49.388;11.350;2024-01-27T09:58:09;11.50;;;4.40;;
11139;SDS011;5624;49.388;11.350;2024-01-27T10:00:36;9.37;;;4.67;;
11139;SDS011;5624;49.388;11.350;2024-01-27T10:03:03;8.37;;;4.13;;
11139;SDS011;5624;49.388;11.350;2024-01-27T10:05:29;10.83;;;3.93;;
11139;SDS011;5624;49.388;11.350;2024-01-27T10:07:57;7.40;;;3.47;;
11139;SDS011;5624;49.388;11.350;2024-01-27T10:10:22;8.00;;;3.60;;
11139;SDS011;5624;49.388;11.350;2024-01-27T10:12:48;7.23;;;3.00;;
11139;SDS011;5624;49.388;11.350;2024-01-27T10:15:19;10.60;;;4.43;;
11139;SDS011;5624;49.388;11.350;2024-01-27T10:17:46;9.87;;;3.97;;
11139;SDS011;5624;49.388;11.350;2024-01-27T10:20:11;11.17;;;4.13;;
11139;SDS011;5624;49.388;11.350;2024-01-27T10:22:43;6.50;;;3.27;;
11139;SDS011;5624;49.388;11.350;2024-01-27T10:25:10;10.73;;;4.37;;
11139;SDS011;5624;49.388;11.350;2024-01-27T10:27:37;9.50;;;5.03;;
11139;SDS011;5624;49.388;11.350;2024-01-27T10:30:03;7.87;;;3.50;;
11139;SDS011;5624;49.388;11.350;2024-01-27T10:32:29;9.83;;;3.53;;
11139;SDS011;5624;49.388;11.350;2024-01-27T10:35:28;12.70;;;4.30;;
11139;SDS011;5624;49.388;11.350;2024-01-27T10:37:46;14.63;;;3.70;;
11139;SDS011;5624;49.388;11.350;2024-01-27T10:40:16;10.30;;;3.17;;
11139;SDS011;5624;49.388;11.350;2024-01-27T10:42:42;8.60;;;2.97;;
11139;SDS011;5624;49.388;11.350;2024-01-27T10:45:10;12.53;;;4.10;;
11139;SDS011;5624;49.388;11.350;2024-01-27T10:47:37;13.57;;;4.17;;
11139;SDS011;5624;49.388;11.350;2024-01-27T10:50:04;11.37;;;3.67;;
11139;SDS011;5624;49.388;11.350;2024-01-27T10:52:34;8.50;;;2.87;;
11139;SDS011;5624;49.388;11.350;2024-01-27T10:55:03;10.77;;;2.47;;
11139;SDS011;5624;49.388;11.350;2024-01-27T10:57:35;7.60;;;2.33;;
11139;SDS011;5624;49.388;11.350;2024-01-27T11:00:03;14.80;;;3.90;;
11139;SDS011;5624;49.388;11.350;2024-01-27T11:02:34;10.50;;;3.40;;
11139;SDS011;5624;49.388;11.350;2024-01-27T11:05:02;12.80;;;3.40;;
11139;SDS011;5624;49.388;11.350;2024-01-27T11:07:30;11.87;;;3.70;;
11139;SDS011;5624;49.388;11.350;2024-01-27T11:09:57;11.20;;;3.30;;
11139;SDS011;5624;49.388;11.350;2024-01-27T11:12:23;14.17;;;4.03;;
11139;SDS011;5624;49.388;11.350;2024-01-27T11:14:50;9.73;;;3.20;;
11139;SDS011;5624;49.388;11.350;2024-01-27T11:17:16;9.60;;;3.20;;
11139;SDS011;5624;49.388;11.350;2024-01-27T11:19:42;12.50;;;3.67;;
11139;SDS011;5624;49.388;11.350;2024-01-27T11:22:23;13.30;;;3.60;;
11139;SDS011;5624;49.388;11.350;2024-01-27T11:24:51;10.90;;;3.40;;
11139;SDS011;5624;49.388;11.350;2024-01-27T11:27:17;9.27;;;3.30;;
11139;SDS011;5624;49.388;11.350;2024-01-27T11:29:48;8.50;;;3.07;;
11139;SDS011;5624;49.388;11.350;2024-01-27T11:32:14;10.00;;;3.70;;
11139;SDS011;5624;49.388;11.350;2024-01-27T11:34:41;10.37;;;3.87;;
11139;SDS011;5624;49.388;11.350;2024-01-27T11:37:14;11.07;;;3.30;;
11139;SDS011;5624;49.388;11.350;2024-01-27T11:39:40;10.57;;;3.30;;
11139;SDS011;5624;49.388;11.350;2024-01-27T11:42:09;9.07;;;3.67;;
11139;SDS011;5624;49.388;11.350;2024-01-27T11:44:39;9.63;;;3.67;;
11139;SDS011;5624;49.388;11.350;2024-01-27T11:47:13;10.33;;;3.60;;
11139;SDS011;5624;49.388;11.350;2024-01-27T11:49:53;9.80;;;3.33;;
11139;SDS011;5624;49.388;11.350;2024-01-27T11:52:20;8.73;;;3.37;;
11139;SDS011;5624;49.388;11.350;2024-01-27T11:54:46;9.77;;;3.50;;
11139;SDS011;5624;49.388;11.350;2024-01-27T11:57:22;9.00;;;2.97;;
11139;SDS011;5624;49.388;11.350;2024-01-27T11:59:48;10.10;;;3.43;;
11139;SDS011;5624;49.388;11.350;2024-01-27T12:02:14;8.90;;;3.00;;
11139;SDS011;5624;49.388;11.350;2024-01-27T12:04:39;7.77;;;3.73;;
11139;SDS011;5624;49.388;11.350;2024-01-27T12:07:05;8.30;;;3.50;;
11139;SDS011;5624;49.388;11.350;2024-01-27T12:09:32;10.67;;;3.57;;
11139;SDS011;5624;49.388;11.350;2024-01-27T12:11:58;8.20;;;2.80;;
11139;SDS011;5624;49.388;11.350;2024-01-27T12:14:23;6.80;;;3.00;;
11139;SDS011;5624;49.388;11.350;2024-01-27T12:16:50;12.10;;;3.70;;
11139;SDS011;5624;49.388;11.350;2024-01-27T12:19:15;10.43;;;3.10;;
11139;SDS011;5624;49.388;11.350;2024-01-27T12:21:48;9.00;;;3.10;;
11139;SDS011;5624;49.388;11.350;2024-01-27T12:24:15;6.07;;;2.60;;
11139;SDS011;5624;49.388;11.350;2024-01-27T12:26:41;9.93;;;3.00;;
11139;SDS011;5624;49.388;11.350;2024-01-27T12:29:07;10.23;;;3.00;;
11139;SDS011;5624;49.388;11.350;2024-01-27T12:31:33;10.73;;;3.27;;
11139;SDS011;5624;49.388;11.350;2024-01-27T12:33:58;9.17;;;3.50;;
11139;SDS011;5624;49.388;11.350;2024-01-27T12:36:24;10.90;;;3.67;;
11139;SDS011;5624;49.388;11.350;2024-01-27T12:41:19;11.07;;;3.70;;
11139;SDS011;5624;49.388;11.350;2024-01-27T12:43:44;8.10;;;3.00;;
11139;SDS011;5624;49.388;11.350;2024-01-27T12:46:10;9.77;;;3.37;;
11139;SDS011;5624;49.388;11.350;2024-01-27T12:48:37;10.27;;;3.50;;
11139;SDS011;5624;49.388;11.350;2024-01-27T12:51:04;7.90;;;3.20;;
11139;SDS011;5624;49.388;11.350;2024-01-27T12:53:29;8.50;;;2.93;;
11139;SDS011;5624;49.388;11.350;2024-01-27T12:55:55;7.80;;;3.20;;
11139;SDS011;5624;49.388;11.350;2024-01-27T12:58:21;8.37;;;3.33;;
11139;SDS011;5624;49.388;11.350;2024-01-27T13:00:47;9.03;;;3.27;;
11139;SDS011;5624;49.388;11.350;2024-01-27T13:03:12;10.07;;;3.40;;
11139;SDS011;5624;49.388;11.350;2024-01-27T13:05:38;7.93;;;3.07;;
11139;SDS011;5624;49.388;11.350;2024-01-27T13:08:04;9.23;;;2.93;;
11139;SDS011;5624;49.388;11.350;2024-01-27T13:10:30;8.73;;;3.20;;
11139;SDS011;5624;49.388;11.350;2024-01-27T13:12:56;11.17;;;4.07;;
11139;SDS011;5624;49.388;11.350;2024-01-27T13:15:23;8.60;;;3.10;;
11139;SDS011;5624;49.388;11.350;2024-01-27T13:17:50;10.67;;;3.37;;
11139;SDS011;5624;49.388;11.350;2024-01-27T13:20:15;11.37;;;3.03;;
11139;SDS011;5624;49.388;11.350;2024-01-27T13:22:42;12.33;;;3.37;;
11139;SDS011;5624;49.388;11.350;2024-01-27T13:25:08;9.17;;;3.30;;
11139;SDS011;5624;49.388;11.350;2024-01-27T13:27:34;9.20;;;2.90;;
11139;SDS011;5624;49.388;11.350;2024-01-27T13:29:59;8.13;;;3.37;;
11139;SDS011;5624;49.388;11.350;2024-01-27T13:32:25;12.20;;;3.47;;
11139;SDS011;5624;49.388;11.350;2024-01-27T13:34:51;6.70;;;2.97;;
11139;SDS011;5624;49.388;11.350;2024-01-27T13:37:17;8.60;;;3.00;;
11139;SDS011;5624;49.388;11.350;2024-01-27T13:39:43;7.63;;;3.10;;
11139;SDS011;5624;49.388;11.350;2024-01-27T13:42:10;8.27;;;2.60;;
11139;SDS011;5624;49.388;11.350;2024-01-27T13:44:36;10.27;;;2.70;;
11139;SDS011;5624;49.388;11.350;2024-01-27T13:47:02;4.67;;;2.57;;
11139;SDS011;5624;49.388;11.350;2024-01-27T13:49:29;8.00;;;2.80;;
11139;SDS011;5624;49.388;11.350;2024-01-27T13:51:56;8.87;;;2.90;;
11139;SDS011;5624;49.388;11.350;2024-01-27T13:54:22;7.73;;;3.00;;
11139;SDS011;5624;49.388;11.350;2024-01-27T13:56:47;6.30;;;2.67;;
11139;SDS011;5624;49.388;11.350;2024-01-27T13:59:13;7.17;;;2.43;;
11139;SDS011;5624;49.388;11.350;2024-01-27T14:01:38;10.53;;;3.13;;
11139;SDS011;5624;49.388;11.350;2024-01-27T14:04:04;10.17;;;2.90;;
11139;SDS011;5624;49.388;11.350;2024-01-27T14:06:30;10.50;;;2.93;;
11139;SDS011;5624;49.388;11.350;2024-01-27T14:08:55;7.83;;;2.67;;
11139;SDS011;5624;49.388;11.350;2024-01-27T14:11:21;7.77;;;2.87;;
11139;SDS011;5624;49.388;11.350;2024-01-27T14:13:47;17.30;;;3.47;;
11139;SDS011;5624;49.388;11.350;2024-01-27T14:16:13;9.80;;;2.87;;
11139;SDS011;5624;49.388;11.350;2024-01-27T14:18:38;6.07;;;2.57;;
11139;SDS011;5624;49.388;11.350;2024-01-27T14:21:04;8.87;;;2.90;;
11139;SDS011;5624;49.388;11.350;2024-01-27T14:23:29;7.83;;;2.73;;
11139;SDS011;5624;49.388;11.350;2024-01-27T14:25:56;10.80;;;2.53;;
11139;SDS011;5624;49.388;11.350;2024-01-27T14:28:22;8.40;;;2.63;;
11139;SDS011;5624;49.388;11.350;2024-01-27T14:30:48;9.10;;;2.73;;
11139;SDS011;5624;49.388;11.350;2024-01-27T14:33:13;9.20;;;2.87;;
11139;SDS011;5624;49.388;11.350;2024-01-27T14:35:41;8.43;;;2.87;;
11139;SDS011;5624;49.388;11.350;2024-01-27T14:38:07;4.47;;;2.60;;